createdAt,value
2018-07-09T00:01:11.317Z,100988.02
2018-07-09T00:03:41.148Z,100988.45
2018-07-09T00:06:09.732Z,100988.56
2018-07-09T00:08:38.676Z,100983.64
2018-07-09T00:13:42.945Z,100982.69
2018-07-09T00:16:11.840Z,100980.98
2018-07-09T00:18:40.355Z,100978.46
2018-07-09T00:21:08.905Z,100977.07
2018-07-09T00:23:37.816Z,100982.22
2018-07-09T00:26:06.383Z,100974.59
2018-07-09T00:28:34.899Z,100977.16
2018-07-09T00:31:04.264Z,100977.31
2018-07-09T00:33:32.810Z,100981.18
2018-07-09T00:36:01.272Z,100984.50
2018-07-09T00:41:09.436Z,100979.03
2018-07-09T00:43:38.789Z,100980.68
2018-07-09T00:46:07.326Z,100978.59
2018-07-09T00:48:35.913Z,100981.05
2018-07-09T00:51:04.600Z,100976.28
2018-07-09T00:53:38.741Z,100987.75
2018-07-09T00:56:07.256Z,100981.84
2018-07-09T00:58:35.845Z,100982.98
2018-07-09T01:01:04.739Z,100979.59
2018-07-09T01:03:34.523Z,100979.91
2018-07-09T01:06:04.861Z,100973.20
2018-07-09T01:08:40.589Z,100973.57
2018-07-09T01:11:23.688Z,100974.33
2018-07-09T01:13:52.465Z,100970.77
2018-07-09T01:16:21.339Z,100975.42
2018-07-09T01:18:49.858Z,100969.22
2018-07-09T01:21:18.416Z,100966.44
2018-07-09T01:23:47.028Z,100972.43
2018-07-09T01:26:15.611Z,100965.09
2018-07-09T01:28:44.288Z,100966.21
2018-07-09T01:31:13.514Z,100968.89
2018-07-09T01:33:42.277Z,100962.50
2018-07-09T01:36:10.943Z,100965.51
2018-07-09T01:38:39.856Z,100968.82
2018-07-09T01:41:08.371Z,100960.94
2018-07-09T01:43:48.018Z,100963.77
2018-07-09T01:46:17.283Z,100964.19
2018-07-09T01:48:45.795Z,100959.03
2018-07-09T01:51:14.382Z,100957.36
2018-07-09T01:53:43.341Z,100957.30
2018-07-09T01:56:12.504Z,100958.67
2018-07-09T01:58:41.147Z,100954.11
2018-07-09T02:01:09.993Z,100958.60
2018-07-09T02:03:38.547Z,100958.20
2018-07-09T02:06:07.057Z,100956.86
2018-07-09T02:08:41.162Z,100956.45
2018-07-09T02:11:10.795Z,100954.19
2018-07-09T02:13:40.411Z,100956.48
2018-07-09T02:16:09.422Z,100948.77
2018-07-09T02:18:38.313Z,100952.14
2018-07-09T02:21:08.397Z,100950.84
2018-07-09T02:23:37.404Z,100950.06
2018-07-09T02:26:11.828Z,100949.14
2018-07-09T02:28:40.719Z,100949.77
2018-07-09T02:31:16.558Z,100945.87
2018-07-09T02:33:45.192Z,100957.20
2018-07-09T02:36:14.643Z,100960.73
2018-07-09T02:38:43.299Z,100954.30
2018-07-09T02:41:12.250Z,100955.64
2018-07-09T02:43:40.784Z,100955.45
2018-07-09T02:46:09.367Z,100958.39
2018-07-09T02:48:37.838Z,100956.48
2018-07-09T02:51:06.763Z,100954.93
2018-07-09T02:53:35.340Z,100959.56
2018-07-09T02:56:04.639Z,100964.35
2018-07-09T03:01:08.840Z,100964.45
2018-07-09T03:03:37.460Z,100964.45
2018-07-09T03:06:06.397Z,100963.45
2018-07-09T03:08:40.146Z,100968.31
2018-07-09T03:11:08.904Z,100964.59
2018-07-09T03:13:41.420Z,100963.88
2018-07-09T03:16:09.933Z,100964.36
2018-07-09T03:18:44.049Z,100969.23
2018-07-09T03:21:12.560Z,100961.70
2018-07-09T03:23:43.185Z,100964.36
2018-07-09T03:26:12.116Z,100965.25
2018-07-09T03:28:40.817Z,100971.84
2018-07-09T03:31:09.464Z,100979.44
2018-07-09T03:33:38.381Z,100978.30
2018-07-09T03:36:07.474Z,100975.91
2018-07-09T03:38:36.757Z,100981.73
2018-07-09T03:41:05.395Z,100980.77
2018-07-09T03:43:33.943Z,100983.33
2018-07-09T03:48:40.286Z,100983.86
2018-07-09T03:51:08.775Z,100982.90
2018-07-09T03:53:37.320Z,100982.67
2018-07-09T03:56:06.750Z,100978.18
2018-07-09T04:01:14.812Z,100975.05
2018-07-09T04:03:46.713Z,100979.43
2018-07-09T04:06:15.244Z,100982.24
2018-07-09T04:08:50.175Z,100988.78
2018-07-09T04:11:19.120Z,100991.59
2018-07-09T04:13:47.614Z,100985.39
2018-07-09T04:16:16.516Z,100992.07
2018-07-09T04:18:45.032Z,100995.80
2018-07-09T04:21:13.564Z,100992.41
2018-07-09T04:23:42.571Z,100992.55
2018-07-09T04:26:11.138Z,100995.37
2018-07-09T04:28:39.591Z,100990.98
2018-07-09T04:31:08.551Z,100996.81
2018-07-09T04:33:37.052Z,100984.40
2018-07-09T04:36:06.231Z,100988.30
2018-07-09T04:38:35.131Z,100993.50
2018-07-09T04:41:03.723Z,100991.16
2018-07-09T04:43:33.056Z,100992.59
2018-07-09T04:46:04.149Z,100993.58
2018-07-09T04:51:00.405Z,100994.30
2018-07-09T04:53:29.296Z,100993.42
2018-07-09T04:55:59.425Z,101000.19
2018-07-09T04:58:28.099Z,100997.80
2018-07-09T05:00:56.979Z,100996.06
2018-07-09T05:06:06.208Z,100988.52
2018-07-09T05:08:34.793Z,100988.75
2018-07-09T05:11:03.398Z,100990.31
2018-07-09T05:13:32.644Z,100987.86
2018-07-09T05:16:01.160Z,100985.38
2018-07-09T05:18:30.013Z,100980.48
2018-07-09T05:20:59.380Z,100989.44
2018-07-09T05:23:27.995Z,100987.73
2018-07-09T05:25:56.541Z,100984.42
2018-07-09T05:28:25.119Z,100991.04
2018-07-09T05:30:54.662Z,100985.36
2018-07-09T05:33:23.936Z,100986.28
2018-07-09T05:35:52.431Z,100983.91
2018-07-09T05:38:21.793Z,100987.50
2018-07-09T05:40:51.008Z,100982.30
2018-07-09T05:43:19.651Z,100984.62
2018-07-09T05:45:51.144Z,100985.73
2018-07-09T05:48:20.041Z,100988.42
2018-07-09T05:53:19.693Z,100990.06
2018-07-09T05:55:48.564Z,100989.76
2018-07-09T05:58:18.476Z,100995.27
2018-07-09T06:00:47.088Z,100995.24
2018-07-09T06:03:16.029Z,100996.86
2018-07-09T06:05:44.875Z,100992.59
2018-07-09T06:08:13.567Z,100993.17
2018-07-09T06:10:48.167Z,100992.43
2018-07-09T06:13:16.787Z,100993.34
2018-07-09T06:15:45.504Z,100995.97
2018-07-09T06:18:14.323Z,100993.16
2018-07-09T06:20:43.315Z,100987.36
2018-07-09T06:23:11.912Z,100997.00
2018-07-09T06:28:23.794Z,101002.67
2018-07-09T06:30:52.771Z,101001.58
2018-07-09T06:33:21.420Z,100997.94
2018-07-09T06:35:50.043Z,100998.40
2018-07-09T06:38:18.991Z,101001.45
2018-07-09T06:40:47.523Z,101002.92
2018-07-09T06:43:16.128Z,101001.75
2018-07-09T06:45:48.735Z,101002.10
2018-07-09T06:48:17.936Z,100999.98
2018-07-09T06:50:46.527Z,101006.13
2018-07-09T06:53:20.879Z,101000.45
2018-07-09T06:55:49.882Z,100999.74
2018-07-09T06:58:20.194Z,101006.41
2018-07-09T07:00:49.138Z,101003.32
2018-07-09T07:03:17.680Z,101003.60
2018-07-09T07:05:46.273Z,100992.09
2018-07-09T07:08:19.260Z,100993.50
2018-07-09T07:10:48.267Z,100990.89
2018-07-09T07:13:22.135Z,100988.92
2018-07-09T07:15:51.071Z,100990.76
2018-07-09T07:18:30.278Z,100986.86
2018-07-09T07:21:00.164Z,100982.34
2018-07-09T07:23:28.800Z,100988.40
2018-07-09T07:25:57.303Z,100979.23
2018-07-09T07:28:26.183Z,100986.14
2018-07-09T07:30:54.706Z,100987.13
2018-07-09T07:33:23.396Z,100983.48
2018-07-09T07:35:52.210Z,100980.34
2018-07-09T07:38:21.000Z,100986.89
2018-07-09T07:40:50.035Z,100982.23
2018-07-09T07:43:20.052Z,100977.23
2018-07-09T07:45:48.632Z,100983.75
2018-07-09T07:48:17.146Z,100980.77
2018-07-09T07:50:49.486Z,100975.42
2018-07-09T07:53:17.945Z,100977.27
2018-07-09T07:55:46.417Z,100975.52
2018-07-09T07:58:15.406Z,100977.30
2018-07-09T08:00:43.918Z,100976.80
2018-07-09T08:03:12.402Z,100981.12
2018-07-09T08:05:44.633Z,100981.66
2018-07-09T08:08:13.168Z,100980.54
2018-07-09T08:10:42.018Z,100988.30
2018-07-09T08:13:27.987Z,100974.18
2018-07-09T08:15:40.525Z,100981.74
2018-07-09T08:18:09.786Z,100987.48
2018-07-09T08:20:44.943Z,100984.57
2018-07-09T08:23:13.685Z,100983.64
2018-07-09T08:25:42.317Z,100988.00
2018-07-09T08:28:11.103Z,100984.30
2018-07-09T08:30:39.712Z,100983.66
2018-07-09T08:33:08.292Z,100984.53
2018-07-09T08:35:37.538Z,100974.81
2018-07-09T08:38:10.781Z,100982.58
2018-07-09T08:40:39.484Z,100981.42
2018-07-09T08:43:13.460Z,100972.34
2018-07-09T08:45:42.046Z,100972.15
2018-07-09T08:48:11.455Z,100964.62
2018-07-09T08:50:40.343Z,100968.80
2018-07-09T08:53:09.551Z,100972.44
2018-07-09T08:55:38.079Z,100977.13
2018-07-09T08:58:07.149Z,100972.95
2018-07-09T09:00:35.660Z,100970.50
2018-07-09T09:03:04.241Z,100965.99
2018-07-09T09:05:33.272Z,100963.98
2018-07-09T09:10:27.494Z,100969.60
2018-07-09T09:12:57.092Z,100956.50
2018-07-09T09:15:25.775Z,100971.48
2018-07-09T09:17:54.441Z,100970.98
2018-07-09T09:20:23.553Z,100962.11
2018-07-09T09:22:52.472Z,100963.65
2018-07-09T09:25:26.597Z,100964.52
2018-07-09T09:27:55.587Z,100960.14
2018-07-09T09:30:24.152Z,100958.80
2018-07-09T09:35:32.479Z,100954.27
2018-07-09T09:38:01.095Z,100954.95
2018-07-09T09:40:29.676Z,100947.05
2018-07-09T09:43:01.595Z,100942.31
2018-07-09T09:45:30.222Z,100935.12
2018-07-09T09:47:58.752Z,100940.52
2018-07-09T09:50:27.953Z,100936.49
2018-07-09T09:52:56.523Z,100941.78
2018-07-09T09:55:25.143Z,100940.94
2018-07-09T09:57:54.481Z,100928.33
2018-07-09T10:00:55.464Z,100930.70
2018-07-09T10:03:25.420Z,100923.61
2018-07-09T10:05:53.931Z,100920.91
2018-07-09T10:08:22.526Z,100918.20
2018-07-09T10:10:51.511Z,100916.04
2018-07-09T10:13:21.398Z,100914.70
2018-07-09T10:15:50.012Z,100920.72
2018-07-09T10:18:22.573Z,100911.09
2018-07-09T10:20:51.567Z,100907.84
2018-07-09T10:23:21.424Z,100907.67
2018-07-09T10:25:50.832Z,100904.61
2018-07-09T10:28:23.272Z,100908.52
2018-07-09T10:30:55.784Z,100909.12
2018-07-09T10:33:28.565Z,100904.45
2018-07-09T10:35:57.641Z,100899.33
2018-07-09T10:38:26.225Z,100903.67
2018-07-09T10:40:54.890Z,100900.85
2018-07-09T10:43:23.448Z,100904.70
2018-07-09T10:45:52.310Z,100884.88
2018-07-09T10:48:24.641Z,100882.66
2018-07-09T10:50:53.235Z,100884.36
2018-07-09T10:53:22.100Z,100879.45
2018-07-09T10:55:50.676Z,100877.88
2018-07-09T10:58:19.404Z,100885.82
2018-07-09T11:00:48.765Z,100887.74
2018-07-09T11:03:17.618Z,100886.27
2018-07-09T11:05:46.316Z,100887.17
2018-07-09T11:08:15.411Z,100878.81
2018-07-09T11:10:46.167Z,100880.94
2018-07-09T11:13:14.766Z,100878.69
2018-07-09T11:15:43.683Z,100884.87
2018-07-09T11:18:12.324Z,100883.07
2018-07-09T11:20:41.087Z,100878.98
2018-07-09T11:23:10.112Z,100884.01
2018-07-09T11:25:43.344Z,100876.42
2018-07-09T11:28:11.990Z,100879.22
2018-07-09T11:30:41.564Z,100874.17
2018-07-09T11:33:11.279Z,100866.77
2018-07-09T11:35:39.866Z,100863.38
2018-07-09T11:38:15.458Z,100878.36
2018-07-09T11:40:44.761Z,100883.42
2018-07-09T11:43:14.663Z,100871.52
2018-07-09T11:45:43.667Z,100871.69
2018-07-09T11:48:15.439Z,100866.55
2018-07-09T11:50:44.180Z,100861.55
2018-07-09T11:53:12.818Z,100861.83
2018-07-09T11:55:41.754Z,100864.72
2018-07-09T11:58:10.738Z,100857.02
2018-07-09T12:00:39.314Z,100851.45
2018-07-09T12:03:08.038Z,100854.17
2018-07-09T12:05:36.890Z,100851.64
2018-07-09T12:08:06.530Z,100845.32
2018-07-09T12:10:35.084Z,100856.02
2018-07-09T12:13:04.054Z,100849.63
2018-07-09T12:15:32.732Z,100851.99
2018-07-09T12:18:03.156Z,100849.73
2018-07-09T12:20:36.252Z,100850.37
2018-07-09T12:23:09.011Z,100846.91
2018-07-09T12:28:19.102Z,100847.02
2018-07-09T12:30:50.447Z,100846.02
2018-07-09T12:33:18.984Z,100838.05
2018-07-09T12:35:47.776Z,100836.17
2018-07-09T12:38:24.176Z,100839.95
2018-07-09T12:40:53.006Z,100843.29
2018-07-09T12:43:23.736Z,100836.30
2018-07-09T12:45:57.443Z,100828.30
2018-07-09T12:48:29.713Z,100821.19
2018-07-09T12:50:58.276Z,100814.52
2018-07-09T12:53:27.436Z,100817.14
2018-07-09T12:55:56.785Z,100819.09
2018-07-09T12:58:25.424Z,100806.48
2018-07-09T13:00:59.853Z,100819.78
2018-07-09T13:03:28.975Z,100806.27
2018-07-09T13:05:57.553Z,100806.47
2018-07-09T13:08:26.103Z,100805.09
2018-07-09T13:10:55.568Z,100810.70
2018-07-09T13:13:24.084Z,100805.05
2018-07-09T13:15:52.639Z,100810.28
2018-07-09T13:18:21.413Z,100801.97
2018-07-09T13:20:50.599Z,100797.57
2018-07-09T13:23:19.119Z,100794.48
2018-07-09T13:25:47.980Z,100792.06
2018-07-09T13:28:16.511Z,100793.63
2018-07-09T13:30:45.049Z,100796.20
2018-07-09T13:33:14.248Z,100788.20
2018-07-09T13:35:42.849Z,100788.30
2018-07-09T13:38:14.779Z,100789.93
2018-07-09T13:40:44.113Z,100786.88
2018-07-09T13:43:12.699Z,100789.36
2018-07-09T13:45:41.209Z,100788.98
2018-07-09T13:48:24.835Z,100778.91
2018-07-09T13:50:53.435Z,100788.51
2018-07-09T13:53:22.323Z,100788.08
2018-07-09T13:55:53.090Z,100783.23
2018-07-09T13:58:21.747Z,100781.64
2018-07-09T14:00:56.615Z,100778.75
2018-07-09T14:03:25.239Z,100777.73
2018-07-09T14:05:53.821Z,100771.56
2018-07-09T14:08:23.262Z,100766.52
2018-07-09T14:10:51.851Z,100759.11
2018-07-09T14:13:20.416Z,100760.00
2018-07-09T14:15:49.294Z,100759.94
2018-07-09T14:18:17.853Z,100757.30
2018-07-09T14:20:46.633Z,100758.46
2018-07-09T14:23:19.640Z,100755.22
2018-07-09T14:25:48.232Z,100752.23
2018-07-09T14:28:18.956Z,100749.43
2018-07-09T14:30:47.803Z,100748.13
2018-07-09T14:33:16.552Z,100750.41
2018-07-09T14:35:45.132Z,100744.09
2018-07-09T14:38:14.056Z,100745.45
2018-07-09T14:40:43.684Z,100750.68
2018-07-09T14:43:12.271Z,100743.45
2018-07-09T14:45:41.193Z,100745.50
2018-07-09T14:48:11.677Z,100751.70
2018-07-09T14:50:40.254Z,100740.69
2018-07-09T14:53:11.391Z,100737.08
2018-07-09T14:55:39.900Z,100730.81
2018-07-09T14:58:13.777Z,100733.08
2018-07-09T15:00:42.685Z,100729.75
2018-07-09T15:03:11.295Z,100730.19
2018-07-09T15:05:39.775Z,100732.89
2018-07-09T15:08:08.885Z,100720.59
2018-07-09T15:10:48.344Z,100720.50
2018-07-09T15:13:18.255Z,100722.22
2018-07-09T15:15:47.143Z,100713.81
2018-07-09T15:18:20.564Z,100719.70
2018-07-09T15:20:49.651Z,100715.66
2018-07-09T15:23:20.745Z,100709.16
2018-07-09T15:25:49.460Z,100707.92
2018-07-09T15:28:26.173Z,100718.78
2018-07-09T15:30:54.878Z,100705.91
2018-07-09T15:33:24.558Z,100713.46
2018-07-09T15:35:53.800Z,100714.03
2018-07-09T15:38:22.395Z,100705.73
2018-07-09T15:40:50.934Z,100699.42
2018-07-09T15:43:34.567Z,100698.58
2018-07-09T15:46:03.792Z,100702.58
2018-07-09T15:48:33.693Z,100698.48
2018-07-09T15:51:02.636Z,100704.28
2018-07-09T15:53:31.884Z,100699.06
2018-07-09T15:56:00.607Z,100694.98
2018-07-09T15:58:29.203Z,100687.22
2018-07-09T16:00:58.495Z,100689.72
2018-07-09T16:03:27.046Z,100683.58
2018-07-09T16:05:57.109Z,100682.84
2018-07-09T16:08:26.266Z,100672.31
2018-07-09T16:10:54.823Z,100677.44
2018-07-09T16:13:24.661Z,100673.61
2018-07-09T16:18:24.820Z,100672.02
2018-07-09T16:20:53.394Z,100670.38
2018-07-09T16:25:57.417Z,100659.91
2018-07-09T16:28:26.023Z,100670.25
2018-07-09T16:31:09.317Z,100667.28
2018-07-09T16:33:38.800Z,100665.64
2018-07-09T16:36:11.753Z,100664.61
2018-07-09T16:38:40.660Z,100667.66
2018-07-09T16:41:09.378Z,100666.11
2018-07-09T16:43:38.360Z,100666.22
2018-07-09T16:46:06.906Z,100663.23
2018-07-09T16:48:35.608Z,100662.55
2018-07-09T16:51:04.574Z,100663.10
2018-07-09T16:53:33.490Z,100665.67
2018-07-09T16:56:03.033Z,100660.53
2018-07-09T16:58:32.120Z,100661.76
2018-07-09T17:01:00.712Z,100659.94
2018-07-09T17:03:29.265Z,100660.90
2018-07-09T17:05:58.315Z,100657.27
2018-07-09T17:08:30.040Z,100660.52
2018-07-09T17:10:58.874Z,100660.28
2018-07-09T17:13:27.775Z,100657.95
2018-07-09T17:15:56.516Z,100666.06
2018-07-09T17:18:28.372Z,100667.37
2018-07-09T17:20:59.533Z,100653.62
2018-07-09T17:23:32.431Z,100657.80
2018-07-09T17:26:01.301Z,100665.20
2018-07-09T17:28:30.349Z,100665.02
2018-07-09T17:31:00.331Z,100659.64
2018-07-09T17:33:29.019Z,100662.39
2018-07-09T17:35:58.896Z,100657.99
2018-07-09T17:38:27.485Z,100664.52
2018-07-09T17:40:56.225Z,100666.12
2018-07-09T17:43:26.170Z,100669.92
2018-07-09T17:45:54.957Z,100667.44
2018-07-09T17:48:23.515Z,100675.26
2018-07-09T17:50:52.443Z,100674.73
2018-07-09T17:53:21.730Z,100669.80
2018-07-09T17:55:50.315Z,100675.86
2018-07-09T17:58:19.847Z,100681.95
2018-07-09T18:00:48.651Z,100673.14
2018-07-09T18:03:17.210Z,100676.77
2018-07-09T18:08:42.354Z,100668.81
2018-07-09T18:11:11.173Z,100677.84
2018-07-09T18:13:39.793Z,100674.43
2018-07-09T18:16:19.431Z,100669.86
2018-07-09T18:18:50.735Z,100675.36
2018-07-09T18:21:19.349Z,100671.45
2018-07-09T18:23:47.935Z,100673.47
2018-07-09T18:26:17.636Z,100674.39
2018-07-09T18:28:46.707Z,100676.84
2018-07-09T18:31:22.385Z,100673.83
2018-07-09T18:33:50.858Z,100673.98
2018-07-09T18:36:22.522Z,100674.70
2018-07-09T18:38:53.153Z,100680.62
2018-07-09T18:41:21.717Z,100673.83
2018-07-09T18:43:50.322Z,100673.56
2018-07-09T18:46:22.875Z,100672.35
2018-07-09T18:48:51.559Z,100672.28
2018-07-09T18:51:30.756Z,100675.27
2018-07-09T18:53:59.814Z,100672.19
2018-07-09T18:56:28.354Z,100671.41
2018-07-09T18:58:56.922Z,100677.11
2018-07-09T19:01:25.921Z,100677.53
2018-07-09T19:04:05.294Z,100682.02
2018-07-09T19:06:45.992Z,100680.22
2018-07-09T19:09:14.540Z,100673.94
2018-07-09T19:11:58.619Z,100678.41
2018-07-09T19:14:36.613Z,100677.62
2018-07-09T19:17:50.215Z,100682.70
2018-07-09T19:20:30.011Z,100688.52
2018-07-09T19:22:58.667Z,100682.56
2018-07-09T19:25:26.006Z,100680.80
2018-07-09T19:27:53.745Z,100681.20
2018-07-09T19:30:21.307Z,100685.05
2018-07-09T19:32:55.035Z,100687.13
2018-07-09T19:35:22.333Z,100681.09
2018-07-09T19:37:50.016Z,100682.45
2018-07-09T19:40:16.996Z,100690.12
2018-07-09T19:42:44.605Z,100685.66
2018-07-09T19:45:12.641Z,100689.41
2018-07-09T19:50:15.713Z,100687.05
2018-07-09T19:52:43.032Z,100694.69
2018-07-09T19:55:10.317Z,100696.57
2018-07-09T19:57:37.989Z,100699.65
2018-07-09T20:00:05.250Z,100697.84
2018-07-09T20:02:32.598Z,100694.33
2018-07-09T20:05:00.178Z,100697.06
2018-07-09T20:07:27.429Z,100699.62
2018-07-09T20:10:00.049Z,100698.97
2018-07-09T20:14:47.119Z,100699.50
2018-07-09T20:17:23.461Z,100700.12
2018-07-09T20:20:02.513Z,100699.96
2018-07-09T20:22:30.011Z,100692.24
2018-07-09T20:24:57.658Z,100699.67
2018-07-09T20:27:24.985Z,100699.03
2018-07-09T20:29:52.328Z,100700.41
2018-07-09T20:32:19.986Z,100703.95
2018-07-09T20:34:47.299Z,100703.60
2018-07-09T20:37:14.947Z,100707.80
2018-07-09T20:39:43.107Z,100706.83
2018-07-09T20:42:12.741Z,100700.22
2018-07-09T20:44:39.990Z,100701.25
2018-07-09T20:47:10.740Z,100708.02
2018-07-09T20:49:38.121Z,100704.49
2018-07-09T20:52:05.544Z,100705.86
2018-07-09T20:54:33.170Z,100705.53
2018-07-09T20:59:07.598Z,100700.63
2018-07-09T21:01:35.081Z,100713.66
2018-07-09T21:04:07.616Z,100714.39
2018-07-09T21:06:34.858Z,100715.77
2018-07-09T21:09:02.406Z,100711.08
2018-07-09T21:11:33.189Z,100712.75
2018-07-09T21:14:01.837Z,100713.62
2018-07-09T21:16:29.519Z,100718.17
2018-07-09T21:18:57.115Z,100723.03
2018-07-09T21:21:28.590Z,100720.33
2018-07-09T21:24:03.735Z,100719.16
2018-07-09T21:26:31.061Z,100712.45
2018-07-09T21:28:58.333Z,100709.27
2018-07-09T21:31:26.071Z,100707.39
2018-07-09T21:33:55.109Z,100713.62
2018-07-09T21:36:22.621Z,100714.13
2018-07-09T21:38:50.215Z,100722.88
2018-07-09T21:41:17.492Z,100717.00
2018-07-09T21:43:44.797Z,100721.36
2018-07-09T21:46:12.383Z,100722.88
2018-07-09T21:48:39.715Z,100716.83
2018-07-09T21:51:06.944Z,100719.52
2018-07-09T21:53:34.855Z,100719.84
2018-07-09T21:56:02.744Z,100710.25
2018-07-09T21:58:34.726Z,100713.30
2018-07-09T22:01:02.308Z,100711.10
2018-07-09T22:03:33.217Z,100719.17
2018-07-09T22:06:00.479Z,100713.75
2018-07-09T22:08:28.096Z,100708.37
2018-07-09T22:10:55.802Z,100700.98
2018-07-09T22:13:23.120Z,100704.52
2018-07-09T22:15:50.655Z,100704.17
2018-07-09T22:18:18.024Z,100698.61
2018-07-09T22:20:45.324Z,100700.31
2018-07-09T22:23:13.024Z,100700.30
2018-07-09T22:25:43.404Z,100703.48
2018-07-09T22:28:10.688Z,100708.86
2018-07-09T22:30:45.966Z,100710.88
2018-07-09T22:33:15.452Z,100708.02
2018-07-09T22:35:45.406Z,100710.88
2018-07-09T22:38:14.369Z,100701.28
2018-07-09T22:40:43.443Z,100705.66
2018-07-09T22:43:28.608Z,100710.36
2018-07-09T22:45:57.611Z,100710.33
2018-07-09T22:48:26.143Z,100700.60
2018-07-09T22:50:54.805Z,100701.44
2018-07-09T22:53:23.952Z,100707.63
2018-07-09T22:56:07.743Z,100704.27
2018-07-09T22:58:37.065Z,100699.91
2018-07-09T23:01:06.067Z,100698.88
2018-07-09T23:03:34.687Z,100697.70
2018-07-09T23:06:04.277Z,100698.19
2018-07-09T23:08:38.803Z,100700.52
2018-07-09T23:13:38.656Z,100697.33
2018-07-09T23:17:21.977Z,100692.93
2018-07-09T23:22:28.693Z,100689.86
2018-07-09T23:24:56.040Z,100685.13
2018-07-09T23:27:30.592Z,100691.83
2018-07-09T23:29:58.513Z,100687.13
2018-07-09T23:32:25.755Z,100694.16
2018-07-09T23:34:53.010Z,100692.98
2018-07-09T23:37:20.252Z,100690.47
2018-07-09T23:39:47.816Z,100681.06
2018-07-09T23:42:15.173Z,100681.01
2018-07-09T23:44:42.323Z,100680.19
2018-07-09T23:47:11.612Z,100678.02
2018-07-09T23:49:38.878Z,100678.19
2018-07-09T23:52:06.180Z,100672.80
2018-07-09T23:54:34.790Z,100673.67
2018-07-09T23:57:17.252Z,100670.80
2018-07-09T23:59:58.415Z,100670.27
